Time;durP1;ratioP1;P1;durP2;ratioP2;P2;SDS_P1;SDS_P2;PMS_P1;PMS_P2;Temp;Humidity;BMP_temperature;BMP_pressure;BME280_temperature;BME280_humidity;BME280_pressure;Samples;Min_cycle;Max_cycle;Signal;HPM_P1;HPM_P2
2022/06/18 00:00:36;;;;;;;9.15;5.75;;;;;;;;;;4841994;28;20038;-71
2022/06/18 00:03:01;;;;;;;10.57;5.38;;;;;;;;;;4856939;28;20034;-72
2022/06/18 00:05:26;;;;;;;8.63;5.38;;;;;;;;;;4865344;28;20092;-71
2022/06/18 00:07:53;;;;;;;7.38;5.03;;;;;;;;;;4839188;28;20154;-71
2022/06/18 00:10:21;;;;;;;8.45;5.22;;;;;;;;;;4849487;28;20047;-71
2022/06/18 00:15:32;;;;;;;9.48;5.50;;;;;;;;;;4868309;28;21062;-72
2022/06/18 00:17:58;;;;;;;13.95;5.47;;;;;;;;;;4851921;28;20042;-71
2022/06/18 00:20:25;;;;;;;11.32;4.78;;;;;;;;;;4880911;28;20216;-71
2022/06/18 00:22:51;;;;;;;8.20;4.95;;;;;;;;;;4861466;28;20145;-71
2022/06/18 00:25:17;;;;;;;9.10;5.95;;;;;;;;;;4841643;28;20049;-71
2022/06/18 00:27:42;;;;;;;7.65;5.25;;;;;;;;;;4864578;28;20074;-71
2022/06/18 00:30:10;;;;;;;12.93;5.57;;;;;;;;;;4837026;28;20054;-71
2022/06/18 00:32:35;;;;;;;10.48;5.55;;;;;;;;;;4848493;28;20055;-71
2022/06/18 00:35:00;;;;;;;7.32;5.40;;;;;;;;;;4834036;28;20043;-71
2022/06/18 00:37:26;;;;;;;11.38;5.70;;;;;;;;;;4850924;28;20042;-71
2022/06/18 00:39:51;;;;;;;11.23;5.45;;;;;;;;;;4835069;28;21070;-71
2022/06/18 00:42:25;;;;;;;9.90;5.32;;;;;;;;;;4846700;28;20045;-71
2022/06/18 00:44:54;;;;;;;7.95;5.60;;;;;;;;;;4851939;28;20085;-69
2022/06/18 00:47:28;;;;;;;9.25;6.10;;;;;;;;;;4851446;28;20038;-69
2022/06/18 00:50:00;;;;;;;17.35;6.13;;;;;;;;;;4868975;28;20050;-68
2022/06/18 00:52:29;;;;;;;11.38;5.75;;;;;;;;;;4853323;28;20410;-68
2022/06/18 00:55:10;;;;;;;10.45;5.55;;;;;;;;;;4868036;28;20038;-68
2022/06/18 00:57:56;;;;;;;8.65;5.47;;;;;;;;;;4844119;28;20039;-68
2022/06/18 01:00:24;;;;;;;9.77;5.53;;;;;;;;;;4866811;28;21166;-68
2022/06/18 01:02:50;;;;;;;8.55;6.07;;;;;;;;;;4852322;28;20046;-68
2022/06/18 01:05:26;;;;;;;7.20;5.50;;;;;;;;;;4855063;28;20999;-68
2022/06/18 01:07:55;;;;;;;7.82;5.90;;;;;;;;;;4843948;28;20058;-68
2022/06/18 01:10:25;;;;;;;11.68;6.85;;;;;;;;;;4849193;28;20450;-69
2022/06/18 01:12:51;;;;;;;13.65;5.80;;;;;;;;;;4847921;28;20035;-68
2022/06/18 01:15:20;;;;;;;7.90;5.50;;;;;;;;;;4854184;28;20108;-68
2022/06/18 01:17:47;;;;;;;10.07;6.05;;;;;;;;;;4852662;28;20042;-68
2022/06/18 01:20:12;;;;;;;12.13;6.35;;;;;;;;;;4841908;28;20069;-70
2022/06/18 01:22:52;;;;;;;13.63;6.15;;;;;;;;;;4848849;28;21273;-68
2022/06/18 01:25:18;;;;;;;8.50;6.18;;;;;;;;;;4842083;28;20042;-68
2022/06/18 01:27:43;;;;;;;10.30;6.65;;;;;;;;;;4866931;28;20042;-68
2022/06/18 01:30:10;;;;;;;11.02;6.18;;;;;;;;;;4842279;28;20058;-68
2022/06/18 01:32:36;;;;;;;11.32;6.15;;;;;;;;;;4861877;28;20540;-69
2022/06/18 01:35:03;;;;;;;10.88;7.15;;;;;;;;;;4852099;28;20035;-69
2022/06/18 01:37:28;;;;;;;10.05;6.00;;;;;;;;;;4854344;28;20195;-68
2022/06/18 01:39:53;;;;;;;8.13;6.07;;;;;;;;;;4865665;28;20046;-68
2022/06/18 01:42:27;;;;;;;9.57;6.18;;;;;;;;;;4836221;28;21013;-68
2022/06/18 01:44:58;;;;;;;10.75;6.35;;;;;;;;;;4859545;28;20390;-68
2022/06/18 01:47:28;;;;;;;12.02;6.38;;;;;;;;;;4847547;28;20046;-68
2022/06/18 01:50:00;;;;;;;9.10;7.03;;;;;;;;;;4867589;28;20053;-68
2022/06/18 01:52:30;;;;;;;10.77;6.82;;;;;;;;;;4839349;28;20939;-69
2022/06/18 01:54:57;;;;;;;13.48;7.07;;;;;;;;;;4858963;28;20039;-69
2022/06/18 01:57:29;;;;;;;13.25;7.72;;;;;;;;;;4843263;28;20043;-68
2022/06/18 01:59:57;;;;;;;14.70;7.32;;;;;;;;;;4843922;28;20043;-68
2022/06/18 02:02:22;;;;;;;10.48;7.28;;;;;;;;;;4843813;28;20036;-68
2022/06/18 02:04:47;;;;;;;13.00;7.75;;;;;;;;;;4837776;28;20049;-68
2022/06/18 02:07:14;;;;;;;11.32;6.90;;;;;;;;;;4846519;28;20698;-68
2022/06/18 02:09:52;;;;;;;12.73;7.53;;;;;;;;;;4847080;28;20124;-68
2022/06/18 02:12:19;;;;;;;10.95;7.40;;;;;;;;;;4848266;28;20026;-68
2022/06/18 02:14:47;;;;;;;12.07;8.25;;;;;;;;;;4844155;28;20073;-68
2022/06/18 02:17:17;;;;;;;11.15;6.60;;;;;;;;;;4851020;28;28460;-68
2022/06/18 02:19:43;;;;;;;14.90;8.77;;;;;;;;;;4862977;28;20460;-68
2022/06/18 02:22:09;;;;;;;11.95;8.38;;;;;;;;;;4841501;28;20716;-68
2022/06/18 02:24:35;;;;;;;10.02;7.75;;;;;;;;;;4851904;28;20039;-68
2022/06/18 02:27:00;;;;;;;11.02;7.43;;;;;;;;;;4850927;28;20105;-68
2022/06/18 02:29:27;;;;;;;12.68;7.50;;;;;;;;;;4869477;28;20088;-68
2022/06/18 02:31:53;;;;;;;13.20;7.93;;;;;;;;;;4842394;28;20042;-68
2022/06/18 02:34:23;;;;;;;13.80;8.63;;;;;;;;;;4851781;28;21290;-68
2022/06/18 02:36:49;;;;;;;13.45;8.25;;;;;;;;;;4842033;28;26143;-68
2022/06/18 02:39:26;;;;;;;10.23;8.35;;;;;;;;;;4854899;28;20062;-69
2022/06/18 02:41:56;;;;;;;18.60;9.05;;;;;;;;;;4862621;28;20043;-69
2022/06/18 02:44:21;;;;;;;15.00;8.88;;;;;;;;;;4856648;28;20043;-70
2022/06/18 02:46:47;;;;;;;11.82;8.68;;;;;;;;;;4852657;28;20094;-68
2022/06/18 02:49:12;;;;;;;14.98;9.50;;;;;;;;;;4838663;28;20223;-68
2022/06/18 02:51:38;;;;;;;12.68;8.35;;;;;;;;;;4851605;28;20046;-68
2022/06/18 02:54:04;;;;;;;12.85;8.88;;;;;;;;;;4839258;28;20051;-69
2022/06/18 02:56:29;;;;;;;14.60;9.57;;;;;;;;;;4835357;28;21102;-68
2022/06/18 02:58:54;;;;;;;11.23;9.32;;;;;;;;;;4837312;28;20123;-69
2022/06/18 03:01:24;;;;;;;13.90;9.27;;;;;;;;;;4848172;28;20077;-69
2022/06/18 03:03:52;;;;;;;12.35;9.80;;;;;;;;;;4851628;28;22478;-69
2022/06/18 03:06:18;;;;;;;14.77;9.60;;;;;;;;;;4850393;28;20153;-67
2022/06/18 03:08:46;;;;;;;13.82;10.77;;;;;;;;;;4866204;28;20145;-68
2022/06/18 03:13:57;;;;;;;20.88;10.60;;;;;;;;;;4867152;28;20045;-69
2022/06/18 03:16:22;;;;;;;17.73;10.90;;;;;;;;;;4851946;28;20039;-69
2022/06/18 03:18:48;;;;;;;15.70;10.68;;;;;;;;;;4870009;28;20069;-69
2022/06/18 03:21:15;;;;;;;21.63;11.50;;;;;;;;;;4856653;28;20117;-69
2022/06/18 03:23:41;;;;;;;16.20;11.18;;;;;;;;;;4864294;28;20038;-68
2022/06/18 03:26:06;;;;;;;20.85;11.57;;;;;;;;;;4854302;28;20148;-69
2022/06/18 03:28:32;;;;;;;21.58;12.15;;;;;;;;;;4840054;28;20042;-69
2022/06/18 03:30:58;;;;;;;15.65;12.13;;;;;;;;;;4851814;28;20071;-69
2022/06/18 03:33:23;;;;;;;14.00;11.98;;;;;;;;;;4839280;28;20119;-69
2022/06/18 03:35:50;;;;;;;14.93;12.00;;;;;;;;;;4851968;28;20483;-69
2022/06/18 03:38:15;;;;;;;23.52;12.45;;;;;;;;;;4843536;28;20041;-69
2022/06/18 03:40:41;;;;;;;17.80;12.98;;;;;;;;;;4870276;28;20050;-67
2022/06/18 03:43:06;;;;;;;16.40;12.88;;;;;;;;;;4855072;28;20034;-69
2022/06/18 03:45:36;;;;;;;29.60;14.65;;;;;;;;;;4839613;28;20045;-69
2022/06/18 03:48:02;;;;;;;27.48;15.93;;;;;;;;;;4869059;28;20039;-69
2022/06/18 03:50:27;;;;;;;26.65;16.85;;;;;;;;;;4854437;28;20104;-69
2022/06/18 03:52:52;;;;;;;28.27;16.38;;;;;;;;;;4865482;28;20031;-67
2022/06/18 03:55:18;;;;;;;27.30;17.90;;;;;;;;;;4837633;28;20062;-67
2022/06/18 03:57:43;;;;;;;24.10;17.73;;;;;;;;;;4851978;28;20047;-68
2022/06/18 04:00:12;;;;;;;28.52;18.98;;;;;;;;;;4837984;28;20035;-67
2022/06/18 04:02:38;;;;;;;28.58;17.50;;;;;;;;;;4850588;28;20451;-67
2022/06/18 04:05:03;;;;;;;41.45;22.67;;;;;;;;;;4851421;28;20494;-67
2022/06/18 04:07:28;;;;;;;28.77;21.83;;;;;;;;;;4850192;28;20053;-68
2022/06/18 04:09:54;;;;;;;39.50;22.52;;;;;;;;;;4869520;28;20046;-69
2022/06/18 04:12:19;;;;;;;41.95;25.05;;;;;;;;;;4850092;28;20047;-67
2022/06/18 04:14:45;;;;;;;39.08;24.20;;;;;;;;;;4867019;28;20038;-67
2022/06/18 04:17:11;;;;;;;46.35;26.02;;;;;;;;;;4843620;28;20149;-67
2022/06/18 04:19:37;;;;;;;45.55;26.17;;;;;;;;;;4846389;28;20031;-67
2022/06/18 04:22:02;;;;;;;44.30;24.60;;;;;;;;;;4843101;28;20069;-68
2022/06/18 04:24:27;;;;;;;35.22;21.92;;;;;;;;;;4858681;28;20034;-68
2022/06/18 04:26:54;;;;;;;33.80;19.77;;;;;;;;;;4868115;28;20034;-68
2022/06/18 04:29:19;;;;;;;39.70;21.42;;;;;;;;;;4838314;28;20039;-68
2022/06/18 04:31:44;;;;;;;39.13;23.52;;;;;;;;;;4850193;28;20207;-68
2022/06/18 04:34:10;;;;;;;38.47;22.23;;;;;;;;;;4833902;28;20496;-68
2022/06/18 04:36:39;;;;;;;30.98;21.38;;;;;;;;;;4849912;28;20468;-68
2022/06/18 04:39:05;;;;;;;46.65;25.38;;;;;;;;;;4837826;28;20062;-68
2022/06/18 04:41:30;;;;;;;32.95;21.52;;;;;;;;;;4867670;28;23826;-68
2022/06/18 04:43:56;;;;;;;37.03;23.15;;;;;;;;;;4869435;28;20047;-68
2022/06/18 04:46:21;;;;;;;46.38;24.85;;;;;;;;;;4851051;28;20042;-68
2022/06/18 04:48:47;;;;;;;44.30;26.50;;;;;;;;;;4865518;28;25495;-68
2022/06/18 04:51:13;;;;;;;41.45;24.88;;;;;;;;;;4843710;28;22960;-72
2022/06/18 04:53:38;;;;;;;37.67;24.35;;;;;;;;;;4848670;28;20029;-71
2022/06/18 04:56:04;;;;;;;31.58;20.45;;;;;;;;;;4852892;28;20496;-70
2022/06/18 04:58:29;;;;;;;39.08;20.80;;;;;;;;;;4868608;28;21267;-70
2022/06/18 05:00:55;;;;;;;31.80;19.38;;;;;;;;;;4864346;28;21253;-70
2022/06/18 05:03:23;;;;;;;33.97;20.67;;;;;;;;;;4837169;28;21499;-71
2022/06/18 05:05:49;;;;;;;34.50;20.75;;;;;;;;;;4846154;28;20037;-70
2022/06/18 05:08:14;;;;;;;37.40;20.73;;;;;;;;;;4843731;28;20126;-71
2022/06/18 05:10:39;;;;;;;30.67;19.58;;;;;;;;;;4860739;28;20042;-71
2022/06/18 05:13:06;;;;;;;31.40;20.67;;;;;;;;;;4852233;28;20068;-71
2022/06/18 05:15:31;;;;;;;31.30;20.23;;;;;;;;;;4863747;28;20088;-71
2022/06/18 05:17:58;;;;;;;30.00;19.67;;;;;;;;;;4850266;28;20153;-71
2022/06/18 05:20:23;;;;;;;42.75;19.48;;;;;;;;;;4844287;28;20420;-71
2022/06/18 05:22:49;;;;;;;27.45;16.95;;;;;;;;;;4849615;28;20153;-71
2022/06/18 05:25:15;;;;;;;34.10;17.20;;;;;;;;;;4837891;28;23782;-70
2022/06/18 05:27:40;;;;;;;28.90;17.02;;;;;;;;;;4849865;28;20181;-71
2022/06/18 05:30:07;;;;;;;30.45;18.40;;;;;;;;;;4841970;28;20089;-71
2022/06/18 05:32:33;;;;;;;30.17;16.17;;;;;;;;;;4866525;28;20169;-70
2022/06/18 05:34:58;;;;;;;28.40;16.33;;;;;;;;;;4851214;28;20034;-71
2022/06/18 05:37:25;;;;;;;31.83;16.80;;;;;;;;;;4858712;28;20609;-72
2022/06/18 05:39:50;;;;;;;33.05;18.80;;;;;;;;;;4864813;28;20030;-72
2022/06/18 05:42:16;;;;;;;28.35;15.20;;;;;;;;;;4858598;28;21730;-72
2022/06/18 05:44:41;;;;;;;30.63;14.35;;;;;;;;;;4865738;28;20038;-72
2022/06/18 05:47:14;;;;;;;24.65;13.98;;;;;;;;;;4841497;28;20047;-72
2022/06/18 05:49:39;;;;;;;27.50;13.35;;;;;;;;;;4856822;28;20066;-72
2022/06/18 05:52:05;;;;;;;25.25;11.77;;;;;;;;;;4843650;28;20042;-73
2022/06/18 05:54:30;;;;;;;26.52;11.48;;;;;;;;;;4867302;28;20050;-72
2022/06/18 05:56:55;;;;;;;28.52;12.98;;;;;;;;;;4852850;28;20115;-72
2022/06/18 05:59:21;;;;;;;30.92;10.93;;;;;;;;;;4851526;28;20042;-70
2022/06/18 06:01:46;;;;;;;23.80;11.27;;;;;;;;;;4850915;28;20081;-70
2022/06/18 06:04:11;;;;;;;25.40;11.30;;;;;;;;;;4853666;28;20594;-70
2022/06/18 06:06:36;;;;;;;24.90;11.98;;;;;;;;;;4873484;28;20157;-71
2022/06/18 06:09:02;;;;;;;22.85;10.50;;;;;;;;;;4848936;28;20057;-72
2022/06/18 06:11:32;;;;;;;21.10;10.30;;;;;;;;;;4851791;28;20035;-72
2022/06/18 06:13:58;;;;;;;25.42;11.80;;;;;;;;;;4855394;28;20049;-71
2022/06/18 06:16:24;;;;;;;22.13;10.63;;;;;;;;;;4869356;28;20728;-72
2022/06/18 06:18:49;;;;;;;23.80;12.05;;;;;;;;;;4864735;28;20042;-71
2022/06/18 06:21:15;;;;;;;22.83;10.60;;;;;;;;;;4856038;28;24040;-73
2022/06/18 06:23:40;;;;;;;24.10;10.23;;;;;;;;;;4866195;28;20124;-68
2022/06/18 06:26:14;;;;;;;22.50;10.77;;;;;;;;;;4858182;28;20207;-68
2022/06/18 06:28:42;;;;;;;26.02;11.07;;;;;;;;;;4870426;28;20062;-68
2022/06/18 06:31:08;;;;;;;21.20;10.77;;;;;;;;;;4848440;28;21071;-68
2022/06/18 06:33:33;;;;;;;16.27;9.65;;;;;;;;;;4866058;28;20034;-69
2022/06/18 06:35:58;;;;;;;20.58;9.85;;;;;;;;;;4850511;28;20121;-67
2022/06/18 06:38:24;;;;;;;20.20;9.63;;;;;;;;;;4865121;28;20195;-67
2022/06/18 06:40:50;;;;;;;20.58;10.02;;;;;;;;;;4863904;28;20062;-67
2022/06/18 06:43:16;;;;;;;24.67;10.02;;;;;;;;;;4851379;28;20077;-67
2022/06/18 06:45:41;;;;;;;18.67;9.20;;;;;;;;;;4867725;28;20118;-68
2022/06/18 06:48:07;;;;;;;17.80;8.88;;;;;;;;;;4844381;28;20078;-68
2022/06/18 06:50:32;;;;;;;19.33;7.70;;;;;;;;;;4849494;28;20142;-71
2022/06/18 06:52:58;;;;;;;15.70;7.50;;;;;;;;;;4832583;28;20070;-71
2022/06/18 06:58:11;;;;;;;16.55;7.88;;;;;;;;;;4846389;28;20137;-71
2022/06/18 07:00:44;;;;;;;16.58;8.27;;;;;;;;;;4854575;28;20045;-70
2022/06/18 07:03:13;;;;;;;18.50;8.23;;;;;;;;;;4866350;28;20046;-70
2022/06/18 07:05:39;;;;;;;16.33;8.57;;;;;;;;;;4850275;28;20039;-70
2022/06/18 07:08:04;;;;;;;18.42;8.15;;;;;;;;;;4867783;28;20408;-71
2022/06/18 07:10:30;;;;;;;13.43;7.78;;;;;;;;;;4849887;28;20054;-71
2022/06/18 07:12:55;;;;;;;15.10;7.25;;;;;;;;;;4865637;28;20042;-71
2022/06/18 07:15:20;;;;;;;16.45;8.32;;;;;;;;;;4854486;28;20042;-68
2022/06/18 07:17:46;;;;;;;14.70;8.00;;;;;;;;;;4866961;28;20520;-67
2022/06/18 07:20:13;;;;;;;14.73;6.82;;;;;;;;;;4864966;28;20129;-68
2022/06/18 07:22:39;;;;;;;20.02;8.65;;;;;;;;;;4838756;28;20050;-68
2022/06/18 07:25:04;;;;;;;14.75;7.93;;;;;;;;;;4848237;28;20038;-68
2022/06/18 07:27:30;;;;;;;24.75;7.93;;;;;;;;;;4835675;28;20070;-68
2022/06/18 07:29:55;;;;;;;12.48;6.30;;;;;;;;;;4851950;28;20046;-68
2022/06/18 07:32:21;;;;;;;17.13;6.82;;;;;;;;;;4853361;28;20635;-68
2022/06/18 07:34:46;;;;;;;16.35;6.70;;;;;;;;;;4865174;28;20051;-68
2022/06/18 07:37:11;;;;;;;16.80;7.38;;;;;;;;;;4816663;28;20085;-68
2022/06/18 07:39:37;;;;;;;14.93;6.85;;;;;;;;;;4847700;28;20041;-68
2022/06/18 07:42:03;;;;;;;20.38;6.82;;;;;;;;;;4847893;28;21474;-68
2022/06/18 07:44:29;;;;;;;13.55;5.43;;;;;;;;;;4834140;28;20043;-68
